sensor_id;sensor_type;location;lat;lon;timestamp;pressure;altitude;pressure_sealevel;temperature;humidity
6435;BME280;3250;42.694;23.278;2022-08-27T00:01:11;94491.97;;;18.78;79.11
6435;BME280;3250;42.694;23.278;2022-08-27T00:03:40;94495.44;;;18.78;79.46
6435;BME280;3250;42.694;23.278;2022-08-27T00:06:05;94494.66;;;18.78;79.63
6435;BME280;3250;42.694;23.278;2022-08-27T00:08:31;94491.75;;;18.74;79.52
6435;BME280;3250;42.694;23.278;2022-08-27T00:10:57;94489.59;;;18.76;79.33
6435;BME280;3250;42.694;23.278;2022-08-27T00:13:22;94482.13;;;18.73;80.05
6435;BME280;3250;42.694;23.278;2022-08-27T00:15:47;94484.03;;;18.68;79.85
6435;BME280;3250;42.694;23.278;2022-08-27T00:18:14;94457.59;;;18.51;79.77
6435;BME280;3250;42.694;23.278;2022-08-27T00:20:39;94479.47;;;18.68;79.85
6435;BME280;3250;42.694;23.278;2022-08-27T00:23:04;94484.28;;;18.66;80.01
6435;BME280;3250;42.694;23.278;2022-08-27T00:25:30;94477.34;;;18.65;80.10
6435;BME280;3250;42.694;23.278;2022-08-27T00:27:55;94453.38;;;18.50;79.66
6435;BME280;3250;42.694;23.278;2022-08-27T00:30:21;94469.09;;;18.62;79.48
6435;BME280;3250;42.694;23.278;2022-08-27T00:32:48;94474.97;;;18.59;79.92
6435;BME280;3250;42.694;23.278;2022-08-27T00:35:14;94473.88;;;18.60;79.57
6435;BME280;3250;42.694;23.278;2022-08-27T00:37:41;94473.59;;;18.56;79.46
6435;BME280;3250;42.694;23.278;2022-08-27T00:40:11;94480.81;;;18.56;79.66
6435;BME280;3250;42.694;23.278;2022-08-27T00:42:36;94471.78;;;18.57;79.22
6435;BME280;3250;42.694;23.278;2022-08-27T00:45:04;94481.34;;;18.53;79.59
6435;BME280;3250;42.694;23.278;2022-08-27T00:47:31;94456.31;;;18.38;79.20
6435;BME280;3250;42.694;23.278;2022-08-27T00:50:12;94484.81;;;18.53;79.04
6435;BME280;3250;42.694;23.278;2022-08-27T00:52:45;94475.75;;;18.44;78.88
6435;BME280;3250;42.694;23.278;2022-08-27T00:55:20;94445.66;;;18.18;79.06
6435;BME280;3250;42.694;23.278;2022-08-27T00:57:58;94482.94;;;18.43;79.41
6435;BME280;3250;42.694;23.278;2022-08-27T01:00:26;94469.66;;;18.33;79.44
6435;BME280;3250;42.694;23.278;2022-08-27T01:02:52;94481.63;;;18.36;79.60
6435;BME280;3250;42.694;23.278;2022-08-27T01:05:21;94478.19;;;18.30;80.08
6435;BME280;3250;42.694;23.278;2022-08-27T01:07:54;94476.56;;;18.29;80.26
6435;BME280;3250;42.694;23.278;2022-08-27T01:10:23;94457.94;;;18.14;80.13
6435;BME280;3250;42.694;23.278;2022-08-27T01:12:50;94479.50;;;18.28;80.41
6435;BME280;3250;42.694;23.278;2022-08-27T01:15:21;94470.47;;;18.24;80.16
6435;BME280;3250;42.694;23.278;2022-08-27T01:17:47;94474.72;;;18.25;80.32
6435;BME280;3250;42.694;23.278;2022-08-27T01:20:41;94473.63;;;18.26;80.16
6435;BME280;3250;42.694;23.278;2022-08-27T01:25:44;94475.78;;;18.19;80.65
6435;BME280;3250;42.694;23.278;2022-08-27T01:28:11;94469.13;;;18.16;80.61
6435;BME280;3250;42.694;23.278;2022-08-27T01:30:38;94465.13;;;18.03;80.56
6435;BME280;3250;42.694;23.278;2022-08-27T01:33:13;94470.72;;;18.12;80.48
6435;BME280;3250;42.694;23.278;2022-08-27T01:35:41;94470.19;;;18.05;80.41
6435;BME280;3250;42.694;23.278;2022-08-27T01:38:07;94441.69;;;17.85;80.37
6435;BME280;3250;42.694;23.278;2022-08-27T01:40:33;94476.03;;;18.02;80.10
6435;BME280;3250;42.694;23.278;2022-08-27T01:42:59;94474.44;;;18.01;80.14
6435;BME280;3250;42.694;23.278;2022-08-27T01:45:28;94475.25;;;18.01;80.21
6435;BME280;3250;42.694;23.278;2022-08-27T01:47:54;94479.75;;;18.01;80.41
6435;BME280;3250;42.694;23.278;2022-08-27T01:50:26;94481.63;;;18.00;80.44
6435;BME280;3250;42.694;23.278;2022-08-27T01:52:53;94489.38;;;18.02;80.63
6435;BME280;3250;42.694;23.278;2022-08-27T01:55:23;94487.75;;;18.01;80.57
6435;BME280;3250;42.694;23.278;2022-08-27T01:57:51;94487.22;;;17.99;80.66
6435;BME280;3250;42.694;23.278;2022-08-27T02:00:20;94472.31;;;17.88;80.57
6435;BME280;3250;42.694;23.278;2022-08-27T02:02:47;94489.38;;;17.97;80.78
6435;BME280;3250;42.694;23.278;2022-08-27T02:05:13;94473.38;;;17.87;80.37
6435;BME280;3250;42.694;23.278;2022-08-27T02:07:39;94446.19;;;17.64;80.61
6435;BME280;3250;42.694;23.278;2022-08-27T02:10:07;94492.00;;;17.92;80.74
6435;BME280;3250;42.694;23.278;2022-08-27T02:12:34;94463.53;;;17.72;80.11
6435;BME280;3250;42.694;23.278;2022-08-27T02:14:59;94488.00;;;17.84;80.59
6435;BME280;3250;42.694;23.278;2022-08-27T02:17:25;94481.63;;;17.85;80.78
6435;BME280;3250;42.694;23.278;2022-08-27T02:19:50;94485.59;;;17.83;80.83
6435;BME280;3250;42.694;23.278;2022-08-27T02:22:16;94450.69;;;17.54;80.43
6435;BME280;3250;42.694;23.278;2022-08-27T02:24:42;94461.59;;;17.52;80.23
6435;BME280;3250;42.694;23.278;2022-08-27T02:27:07;94489.59;;;17.70;81.06
6435;BME280;3250;42.694;23.278;2022-08-27T02:29:33;94466.09;;;17.47;80.83
6435;BME280;3250;42.694;23.278;2022-08-27T02:31:59;94490.91;;;17.67;81.10
6435;BME280;3250;42.694;23.278;2022-08-27T02:34:26;94469.56;;;17.52;81.33
6435;BME280;3250;42.694;23.278;2022-08-27T02:36:51;94494.94;;;17.70;81.30
6435;BME280;3250;42.694;23.278;2022-08-27T02:39:18;94505.56;;;17.70;81.24
6435;BME280;3250;42.694;23.278;2022-08-27T02:41:43;94493.03;;;17.65;80.87
6435;BME280;3250;42.694;23.278;2022-08-27T02:44:09;94510.34;;;17.68;81.09
6435;BME280;3250;42.694;23.278;2022-08-27T02:46:36;94506.88;;;17.67;81.22
6435;BME280;3250;42.694;23.278;2022-08-27T02:49:01;94512.72;;;17.64;81.53
6435;BME280;3250;42.694;23.278;2022-08-27T02:51:27;94506.84;;;17.57;81.25
6435;BME280;3250;42.694;23.278;2022-08-27T02:53:52;94503.31;;;17.31;82.17
6435;BME280;3250;42.694;23.278;2022-08-27T02:56:18;94483.31;;;17.24;82.59
6435;BME280;3250;42.694;23.278;2022-08-27T02:58:44;94512.13;;;17.37;82.83
6435;BME280;3250;42.694;23.278;2022-08-27T03:01:10;94498.28;;;17.35;82.61
6435;BME280;3250;42.694;23.278;2022-08-27T03:03:36;94505.19;;;17.41;82.75
6435;BME280;3250;42.694;23.278;2022-08-27T03:06:01;94514.53;;;17.44;82.38
6435;BME280;3250;42.694;23.278;2022-08-27T03:08:27;94519.59;;;17.45;82.40
6435;BME280;3250;42.694;23.278;2022-08-27T03:10:54;94518.53;;;17.46;82.32
6435;BME280;3250;42.694;23.278;2022-08-27T03:13:21;94504.38;;;17.35;81.92
6435;BME280;3250;42.694;23.278;2022-08-27T03:15:47;94516.91;;;17.40;82.14
6435;BME280;3250;42.694;23.278;2022-08-27T03:18:13;94517.44;;;17.37;82.22
6435;BME280;3250;42.694;23.278;2022-08-27T03:20:51;94519.81;;;17.28;82.47
6435;BME280;3250;42.694;23.278;2022-08-27T03:23:19;94525.38;;;17.27;83.04
6435;BME280;3250;42.694;23.278;2022-08-27T03:25:52;94525.94;;;17.29;83.10
6435;BME280;3250;42.694;23.278;2022-08-27T03:28:23;94516.59;;;17.26;83.10
6435;BME280;3250;42.694;23.278;2022-08-27T03:30:59;94521.88;;;17.21;83.04
6435;BME280;3250;42.694;23.278;2022-08-27T03:33:27;94521.63;;;17.18;83.12
6435;BME280;3250;42.694;23.278;2022-08-27T03:35:53;94524.78;;;17.15;83.37
6435;BME280;3250;42.694;23.278;2022-08-27T03:38:19;94530.63;;;17.12;83.58
6435;BME280;3250;42.694;23.278;2022-08-27T03:40:44;94537.81;;;17.11;83.64
6435;BME280;3250;42.694;23.278;2022-08-27T03:43:14;94526.09;;;17.07;83.86
6435;BME280;3250;42.694;23.278;2022-08-27T03:45:43;94535.38;;;17.05;83.41
6435;BME280;3250;42.694;23.278;2022-08-27T03:48:09;94530.28;;;16.98;83.89
6435;BME280;3250;42.694;23.278;2022-08-27T03:50:37;94527.63;;;16.93;84.03
6435;BME280;3250;42.694;23.278;2022-08-27T03:53:03;94529.47;;;16.92;84.04
6435;BME280;3250;42.694;23.278;2022-08-27T03:55:29;94526.00;;;16.92;84.25
6435;BME280;3250;42.694;23.278;2022-08-27T03:57:54;94530.03;;;16.94;84.30
6435;BME280;3250;42.694;23.278;2022-08-27T04:00:20;94536.41;;;16.98;84.28
6435;BME280;3250;42.694;23.278;2022-08-27T04:02:45;94538.81;;;17.00;84.52
6435;BME280;3250;42.694;23.278;2022-08-27T04:05:12;94545.75;;;17.01;84.55
6435;BME280;3250;42.694;23.278;2022-08-27T04:07:39;94520.94;;;16.85;84.16
6435;BME280;3250;42.694;23.278;2022-08-27T04:10:05;94539.31;;;16.97;84.44
6435;BME280;3250;42.694;23.278;2022-08-27T04:12:31;94546.50;;;16.96;84.68
6435;BME280;3250;42.694;23.278;2022-08-27T04:14:57;94540.13;;;16.97;84.55
6435;BME280;3250;42.694;23.278;2022-08-27T04:17:22;94544.69;;;17.07;84.68
6435;BME280;3250;42.694;23.278;2022-08-27T04:19:50;94548.47;;;17.21;84.40
6435;BME280;3250;42.694;23.278;2022-08-27T04:22:16;94556.56;;;17.42;83.75
6435;BME280;3250;42.694;23.278;2022-08-27T04:24:42;94560.94;;;17.63;82.48
6435;BME280;3250;42.694;23.278;2022-08-27T04:27:07;94561.81;;;17.89;81.93
6435;BME280;3250;42.694;23.278;2022-08-27T04:29:33;94557.59;;;18.13;80.44
6435;BME280;3250;42.694;23.278;2022-08-27T04:31:59;94560.53;;;18.42;79.71
6435;BME280;3250;42.694;23.278;2022-08-27T04:34:25;94540.78;;;18.53;78.48
6435;BME280;3250;42.694;23.278;2022-08-27T04:36:53;94561.56;;;18.87;78.04
6435;BME280;3250;42.694;23.278;2022-08-27T04:39:19;94560.44;;;19.23;76.97
6435;BME280;3250;42.694;23.278;2022-08-27T04:41:48;94556.28;;;19.66;74.67
6435;BME280;3250;42.694;23.278;2022-08-27T04:44:14;94543.69;;;20.16;72.42
6435;BME280;3250;42.694;23.278;2022-08-27T04:46:39;94515.94;;;20.51;70.72
6435;BME280;3250;42.694;23.278;2022-08-27T04:49:10;94567.81;;;21.36;68.25
6435;BME280;3250;42.694;23.278;2022-08-27T04:51:38;94571.44;;;21.93;66.04
6435;BME280;3250;42.694;23.278;2022-08-27T04:54:04;94555.16;;;22.46;64.90
6435;BME280;3250;42.694;23.278;2022-08-27T04:56:33;94580.22;;;23.20;62.84
6435;BME280;3250;42.694;23.278;2022-08-27T04:59:00;94575.38;;;23.90;59.72
6435;BME280;3250;42.694;23.278;2022-08-27T05:01:28;94538.66;;;24.35;57.95
6435;BME280;3250;42.694;23.278;2022-08-27T05:03:54;94582.03;;;25.23;55.28
6435;BME280;3250;42.694;23.278;2022-08-27T05:06:21;94548.00;;;25.67;54.00
6435;BME280;3250;42.694;23.278;2022-08-27T05:08:49;94589.75;;;26.52;52.12
6435;BME280;3250;42.694;23.278;2022-08-27T05:11:15;94539.84;;;26.75;50.91
6435;BME280;3250;42.694;23.278;2022-08-27T05:13:43;94555.44;;;27.33;49.54
6435;BME280;3250;42.694;23.278;2022-08-27T05:16:12;94581.91;;;28.04;47.49
6435;BME280;3250;42.694;23.278;2022-08-27T05:18:38;94583.97;;;28.57;47.34
6435;BME280;3250;42.694;23.278;2022-08-27T05:21:05;94578.56;;;29.11;45.94
6435;BME280;3250;42.694;23.278;2022-08-27T05:23:31;94573.28;;;29.59;44.04
6435;BME280;3250;42.694;23.278;2022-08-27T05:25:58;94591.88;;;30.06;42.65
6435;BME280;3250;42.694;23.278;2022-08-27T05:28:25;94586.31;;;30.51;41.68
6435;BME280;3250;42.694;23.278;2022-08-27T05:30:53;94595.34;;;30.95;41.10
6435;BME280;3250;42.694;23.278;2022-08-27T05:33:22;94580.78;;;31.31;40.60
6435;BME280;3250;42.694;23.278;2022-08-27T05:35:51;94588.41;;;32.01;38.76
6435;BME280;3250;42.694;23.278;2022-08-27T05:38:17;94581.97;;;32.40;38.13
6435;BME280;3250;42.694;23.278;2022-08-27T05:40:43;94595.81;;;32.86;37.42
6435;BME280;3250;42.694;23.278;2022-08-27T05:43:10;94579.38;;;33.21;36.07
6435;BME280;3250;42.694;23.278;2022-08-27T05:45:41;94581.03;;;33.25;35.20
6435;BME280;3250;42.694;23.278;2022-08-27T05:48:08;94572.06;;;33.25;35.57
6435;BME280;3250;42.694;23.278;2022-08-27T05:50:39;94577.78;;;33.62;34.74
6435;BME280;3250;42.694;23.278;2022-08-27T05:53:06;94595.88;;;34.16;33.44
6435;BME280;3250;42.694;23.278;2022-08-27T05:55:40;94592.78;;;34.43;32.72
6435;BME280;3250;42.694;23.278;2022-08-27T05:58:07;94599.03;;;34.40;32.35
6435;BME280;3250;42.694;23.278;2022-08-27T06:00:36;94603.59;;;34.33;32.50
6435;BME280;3250;42.694;23.278;2022-08-27T06:03:20;94603.31;;;33.92;32.56
6435;BME280;3250;42.694;23.278;2022-08-27T06:05:46;94593.94;;;34.16;32.65
6435;BME280;3250;42.694;23.278;2022-08-27T06:08:11;94601.88;;;34.51;32.81
6435;BME280;3250;42.694;23.278;2022-08-27T06:10:41;94610.75;;;34.67;31.87
6435;BME280;3250;42.694;23.278;2022-08-27T06:13:07;94587.19;;;34.33;31.91
6435;BME280;3250;42.694;23.278;2022-08-27T06:15:33;94596.91;;;33.62;32.86
6435;BME280;3250;42.694;23.278;2022-08-27T06:17:58;94604.38;;;33.23;34.11
6435;BME280;3250;42.694;23.278;2022-08-27T06:20:23;94603.13;;;33.20;33.47
6435;BME280;3250;42.694;23.278;2022-08-27T06:22:49;94599.13;;;32.95;34.55
6435;BME280;3250;42.694;23.278;2022-08-27T06:25:14;94606.16;;;32.77;34.75
6435;BME280;3250;42.694;23.278;2022-08-27T06:27:40;94606.56;;;32.44;35.01
6435;BME280;3250;42.694;23.278;2022-08-27T06:30:05;94601.06;;;32.25;36.27
6435;BME280;3250;42.694;23.278;2022-08-27T06:32:31;94598.34;;;31.77;35.78
6435;BME280;3250;42.694;23.278;2022-08-27T06:34:57;94603.09;;;31.21;36.10
6435;BME280;3250;42.694;23.278;2022-08-27T06:37:22;94606.22;;;30.95;38.58
6435;BME280;3250;42.694;23.278;2022-08-27T06:39:47;94601.94;;;30.82;38.04
6435;BME280;3250;42.694;23.278;2022-08-27T06:42:13;94598.75;;;30.52;37.88
6435;BME280;3250;42.694;23.278;2022-08-27T06:44:39;94598.88;;;30.44;38.44
6435;BME280;3250;42.694;23.278;2022-08-27T06:47:05;94585.88;;;30.13;38.75
6435;BME280;3250;42.694;23.278;2022-08-27T06:49:31;94591.06;;;29.81;40.15
6435;BME280;3250;42.694;23.278;2022-08-27T06:51:57;94592.00;;;29.97;40.38
6435;BME280;3250;42.694;23.278;2022-08-27T06:54:23;94595.25;;;30.03;39.24
6435;BME280;3250;42.694;23.278;2022-08-27T06:56:48;94587.31;;;29.86;39.43
6435;BME280;3250;42.694;23.278;2022-08-27T06:59:16;94590.03;;;29.86;39.72
6435;BME280;3250;42.694;23.278;2022-08-27T07:01:46;94591.72;;;29.66;40.68
6435;BME280;3250;42.694;23.278;2022-08-27T07:04:19;94594.09;;;29.80;41.76
6435;BME280;3250;42.694;23.278;2022-08-27T07:06:46;94585.94;;;29.68;39.68
6435;BME280;3250;42.694;23.278;2022-08-27T07:09:12;94587.84;;;29.10;40.48
6435;BME280;3250;42.694;23.278;2022-08-27T07:11:38;94585.78;;;29.07;42.13
6435;BME280;3250;42.694;23.278;2022-08-27T07:14:05;94584.63;;;28.96;41.82
6435;BME280;3250;42.694;23.278;2022-08-27T07:16:31;94582.53;;;29.13;42.62
6435;BME280;3250;42.694;23.278;2022-08-27T07:18:58;94585.50;;;29.33;40.36
6435;BME280;3250;42.694;23.278;2022-08-27T07:21:23;94559.28;;;29.24;40.85
6435;BME280;3250;42.694;23.278;2022-08-27T07:23:53;94588.31;;;28.91;41.98
6435;BME280;3250;42.694;23.278;2022-08-27T07:26:19;94581.53;;;28.85;43.24
6435;BME280;3250;42.694;23.278;2022-08-27T07:28:46;94590.53;;;29.10;43.09
6435;BME280;3250;42.694;23.278;2022-08-27T07:31:15;94593.41;;;29.13;41.37
6435;BME280;3250;42.694;23.278;2022-08-27T07:33:42;94586.00;;;29.02;41.94
6435;BME280;3250;42.694;23.278;2022-08-27T07:36:08;94598.91;;;29.17;42.11
6435;BME280;3250;42.694;23.278;2022-08-27T07:38:35;94593.50;;;29.50;43.34
6435;BME280;3250;42.694;23.278;2022-08-27T07:41:09;94594.09;;;29.68;40.98
6435;BME280;3250;42.694;23.278;2022-08-27T07:43:35;94600.22;;;29.32;41.43
6435;BME280;3250;42.694;23.278;2022-08-27T07:46:20;94566.38;;;28.84;41.81
6435;BME280;3250;42.694;23.278;2022-08-27T07:48:47;94580.09;;;28.87;41.42
6435;BME280;3250;42.694;23.278;2022-08-27T07:51:14;94597.16;;;29.33;43.42
6435;BME280;3250;42.694;23.278;2022-08-27T07:53:42;94588.75;;;29.59;41.01
6435;BME280;3250;42.694;23.278;2022-08-27T07:56:07;94592.03;;;29.52;43.38
6435;BME280;3250;42.694;23.278;2022-08-27T07:58:34;94595.91;;;29.88;41.89
6435;BME280;3250;42.694;23.278;2022-08-27T08:01:00;94608.19;;;30.18;40.10
6435;BME280;3250;42.694;23.278;2022-08-27T08:03:26;94608.34;;;30.50;40.44
6435;BME280;3250;42.694;23.278;2022-08-27T08:05:52;94602.34;;;30.68;39.35
6435;BME280;3250;42.694;23.278;2022-08-27T08:08:21;94602.69;;;30.67;40.67
6435;BME280;3250;42.694;23.278;2022-08-27T08:10:47;94595.41;;;30.71;40.67
6435;BME280;3250;42.694;23.278;2022-08-27T08:13:16;94569.38;;;30.70;38.80
6435;BME280;3250;42.694;23.278;2022-08-27T08:15:43;94587.94;;;31.08;38.39
6435;BME280;3250;42.694;23.278;2022-08-27T08:18:09;94594.13;;;31.21;38.61
6435;BME280;3250;42.694;23.278;2022-08-27T08:20:35;94573.78;;;31.30;37.84
6435;BME280;3250;42.694;23.278;2022-08-27T08:23:00;94586.84;;;31.40;37.31
6435;BME280;3250;42.694;23.278;2022-08-27T08:25:27;94588.03;;;31.55;38.72
6435;BME280;3250;42.694;23.278;2022-08-27T08:27:52;94561.84;;;31.50;39.15
6435;BME280;3250;42.694;23.278;2022-08-27T08:30:18;94573.50;;;31.63;37.93
6435;BME280;3250;42.694;23.278;2022-08-27T08:32:43;94574.84;;;31.57;36.83
6435;BME280;3250;42.694;23.278;2022-08-27T08:35:09;94557.19;;;31.20;36.77
6435;BME280;3250;42.694;23.278;2022-08-27T08:37:35;94573.72;;;31.58;38.02
6435;BME280;3250;42.694;23.278;2022-08-27T08:40:02;94583.84;;;31.89;37.53
6435;BME280;3250;42.694;23.278;2022-08-27T08:42:38;94584.91;;;31.84;36.33
6435;BME280;3250;42.694;23.278;2022-08-27T08:45:06;94586.66;;;31.77;38.12
6435;BME280;3250;42.694;23.278;2022-08-27T08:47:45;94581.47;;;32.03;37.00
6435;BME280;3250;42.694;23.278;2022-08-27T08:50:22;94563.00;;;32.12;38.57
6435;BME280;3250;42.694;23.278;2022-08-27T09:00:59;94578.63;;;32.31;33.67
6435;BME280;3250;42.694;23.278;2022-08-27T09:03:27;94582.25;;;32.19;36.73
6435;BME280;3250;42.694;23.278;2022-08-27T09:05:58;94577.53;;;32.16;34.27
6435;BME280;3250;42.694;23.278;2022-08-27T09:08:34;94575.66;;;32.05;34.66
6435;BME280;3250;42.694;23.278;2022-08-27T09:13:54;94578.66;;;31.68;33.87
6435;BME280;3250;42.694;23.278;2022-08-27T09:16:21;94560.63;;;31.48;35.46
6435;BME280;3250;42.694;23.278;2022-08-27T09:18:47;94566.59;;;31.54;36.42
6435;BME280;3250;42.694;23.278;2022-08-27T09:24:02;94564.03;;;30.73;36.75
6435;BME280;3250;42.694;23.278;2022-08-27T09:26:29;94541.09;;;30.59;37.41
6435;BME280;3250;42.694;23.278;2022-08-27T09:29:00;94568.06;;;30.80;36.76
6435;BME280;3250;42.694;23.278;2022-08-27T09:34:21;94552.56;;;31.08;35.87
6435;BME280;3250;42.694;23.278;2022-08-27T09:37:13;94557.47;;;31.30;34.88
6435;BME280;3250;42.694;23.278;2022-08-27T09:39:46;94562.97;;;31.34;33.90
6435;BME280;3250;42.694;23.278;2022-08-27T09:42:49;94550.63;;;31.36;36.00
6435;BME280;3250;42.694;23.278;2022-08-27T09:45:26;94556.75;;;31.33;37.27
6435;BME280;3250;42.694;23.278;2022-08-27T09:48:13;94553.84;;;31.42;35.63
6435;BME280;3250;42.694;23.278;2022-08-27T09:50:46;94563.16;;;31.41;35.81
6435;BME280;3250;42.694;23.278;2022-08-27T09:55:47;94564.19;;;31.21;31.24
6435;BME280;3250;42.694;23.278;2022-08-27T09:58:19;94552.25;;;30.97;33.29
6435;BME280;3250;42.694;23.278;2022-08-27T10:00:46;94555.88;;;31.01;36.00
6435;BME280;3250;42.694;23.278;2022-08-27T10:03:12;94556.53;;;31.10;34.37
6435;BME280;3250;42.694;23.278;2022-08-27T10:05:45;94557.53;;;31.06;32.29
6435;BME280;3250;42.694;23.278;2022-08-27T10:08:45;94552.84;;;30.91;34.77
6435;BME280;3250;42.694;23.278;2022-08-27T10:11:19;94549.16;;;30.83;33.83
6435;BME280;3250;42.694;23.278;2022-08-27T10:13:56;94553.75;;;30.95;31.39
6435;BME280;3250;42.694;23.278;2022-08-27T10:19:41;94533.88;;;30.38;32.74
6435;BME280;3250;42.694;23.278;2022-08-27T10:30:00;94549.28;;;30.34;32.73
6435;BME280;3250;42.694;23.278;2022-08-27T10:38:02;94547.44;;;30.51;34.29
6435;BME280;3250;42.694;23.278;2022-08-27T10:40:45;94541.69;;;30.40;31.40
6435;BME280;3250;42.694;23.278;2022-08-27T10:46:00;94548.59;;;30.37;34.89
6435;BME280;3250;42.694;23.278;2022-08-27T10:48:29;94549.25;;;30.47;32.80
6435;BME280;3250;42.694;23.278;2022-08-27T10:51:14;94544.03;;;30.54;32.26
6435;BME280;3250;42.694;23.278;2022-08-27T10:54:03;94547.91;;;30.53;30.51
6435;BME280;3250;42.694;23.278;2022-08-27T10:56:32;94555.28;;;30.40;31.65
6435;BME280;3250;42.694;23.278;2022-08-27T11:04:33;94534.78;;;30.43;33.08
6435;BME280;3250;42.694;23.278;2022-08-27T11:07:07;94542.56;;;30.56;31.16
6435;BME280;3250;42.694;23.278;2022-08-27T11:09:40;94539.81;;;30.68;32.73
6435;BME280;3250;42.694;23.278;2022-08-27T11:12:13;94534.59;;;30.63;29.35
6435;BME280;3250;42.694;23.278;2022-08-27T11:17:23;94534.34;;;30.53;28.80
6435;BME280;3250;42.694;23.278;2022-08-27T11:19:58;94540.78;;;30.36;29.04
6435;BME280;3250;42.694;23.278;2022-08-27T11:22:32;94534.13;;;30.33;29.21
6435;BME280;3250;42.694;23.278;2022-08-27T11:25:25;94529.03;;;30.32;28.04
6435;BME280;3250;42.694;23.278;2022-08-27T11:27:55;94523.25;;;30.33;29.43
6435;BME280;3250;42.694;23.278;2022-08-27T11:30:45;94527.50;;;30.47;27.25
6435;BME280;3250;42.694;23.278;2022-08-27T11:34:08;94519.94;;;30.52;28.17
6435;BME280;3250;42.694;23.278;2022-08-27T11:39:17;94518.59;;;30.74;27.69
6435;BME280;3250;42.694;23.278;2022-08-27T11:44:43;94503.84;;;30.87;29.11
6435;BME280;3250;42.694;23.278;2022-08-27T11:47:17;94513.03;;;30.98;29.88
6435;BME280;3250;42.694;23.278;2022-08-27T11:49:47;94503.13;;;31.06;30.59
6435;BME280;3250;42.694;23.278;2022-08-27T11:52:30;94505.72;;;31.15;29.75
6435;BME280;3250;42.694;23.278;2022-08-27T11:57:41;94503.13;;;30.90;29.65
6435;BME280;3250;42.694;23.278;2022-08-27T12:00:39;94505.28;;;30.69;29.38
6435;BME280;3250;42.694;23.278;2022-08-27T12:03:21;94498.28;;;30.56;30.81
6435;BME280;3250;42.694;23.278;2022-08-27T12:06:06;94493.50;;;30.65;29.18
6435;BME280;3250;42.694;23.278;2022-08-27T12:08:34;94487.22;;;30.77;31.14
6435;BME280;3250;42.694;23.278;2022-08-27T12:11:26;94484.16;;;30.78;29.86
6435;BME280;3250;42.694;23.278;2022-08-27T12:14:16;94478.81;;;30.82;29.25
6435;BME280;3250;42.694;23.278;2022-08-27T12:17:07;94482.25;;;30.79;29.75
6435;BME280;3250;42.694;23.278;2022-08-27T12:25:28;94464.03;;;30.67;28.88
6435;BME280;3250;42.694;23.278;2022-08-27T12:28:00;94473.53;;;30.73;28.96
6435;BME280;3250;42.694;23.278;2022-08-27T12:30:37;94461.06;;;30.72;29.07
6435;BME280;3250;42.694;23.278;2022-08-27T12:33:31;94472.44;;;30.62;28.07
6435;BME280;3250;42.694;23.278;2022-08-27T12:36:05;94450.09;;;30.53;29.24
6435;BME280;3250;42.694;23.278;2022-08-27T12:38:44;94461.66;;;30.65;30.96
6435;BME280;3250;42.694;23.278;2022-08-27T12:41:23;94466.25;;;30.61;28.65
6435;BME280;3250;42.694;23.278;2022-08-27T12:44:01;94473.59;;;30.61;28.72
6435;BME280;3250;42.694;23.278;2022-08-27T12:46:27;94463.06;;;30.59;28.50
6435;BME280;3250;42.694;23.278;2022-08-27T12:49:00;94464.81;;;30.52;29.59
6435;BME280;3250;42.694;23.278;2022-08-27T12:51:35;94460.47;;;30.51;28.77
6435;BME280;3250;42.694;23.278;2022-08-27T12:54:24;94458.16;;;30.65;29.24
6435;BME280;3250;42.694;23.278;2022-08-27T13:04:51;94449.69;;;30.82;27.96
6435;BME280;3250;42.694;23.278;2022-08-27T13:07:27;94453.53;;;30.81;30.02
6435;BME280;3250;42.694;23.278;2022-08-27T13:09:52;94455.31;;;30.89;29.49
6435;BME280;3250;42.694;23.278;2022-08-27T13:12:18;94423.63;;;30.81;30.40
6435;BME280;3250;42.694;23.278;2022-08-27T13:14:44;94447.88;;;31.02;28.31
6435;BME280;3250;42.694;23.278;2022-08-27T13:17:17;94450.75;;;30.93;28.84
6435;BME280;3250;42.694;23.278;2022-08-27T13:19:46;94448.66;;;30.87;29.93
6435;BME280;3250;42.694;23.278;2022-08-27T13:22:41;94444.25;;;30.82;29.25
6435;BME280;3250;42.694;23.278;2022-08-27T13:25:31;94443.38;;;30.78;27.76
6435;BME280;3250;42.694;23.278;2022-08-27T13:28:14;94437.16;;;30.78;28.53
6435;BME280;3250;42.694;23.278;2022-08-27T13:30:43;94404.88;;;30.48;28.77
6435;BME280;3250;42.694;23.278;2022-08-27T13:33:15;94434.31;;;30.74;27.88
6435;BME280;3250;42.694;23.278;2022-08-27T13:35:43;94442.97;;;30.64;28.97
6435;BME280;3250;42.694;23.278;2022-08-27T13:38:09;94438.91;;;30.70;28.75
6435;BME280;3250;42.694;23.278;2022-08-27T13:40:37;94441.84;;;30.65;27.92
6435;BME280;3250;42.694;23.278;2022-08-27T13:43:15;94441.06;;;30.64;27.82
6435;BME280;3250;42.694;23.278;2022-08-27T13:45:47;94431.50;;;30.70;27.94
6435;BME280;3250;42.694;23.278;2022-08-27T13:48:17;94415.56;;;30.69;29.03
6435;BME280;3250;42.694;23.278;2022-08-27T13:50:53;94428.28;;;30.81;28.98
6435;BME280;3250;42.694;23.278;2022-08-27T13:53:30;94430.22;;;30.80;27.97
6435;BME280;3250;42.694;23.278;2022-08-27T13:56:29;94433.72;;;30.81;28.00
6435;BME280;3250;42.694;23.278;2022-08-27T13:59:10;94437.16;;;30.78;28.08
6435;BME280;3250;42.694;23.278;2022-08-27T14:01:36;94436.38;;;30.77;29.18
6435;BME280;3250;42.694;23.278;2022-08-27T14:04:05;94435.56;;;30.77;30.00
6435;BME280;3250;42.694;23.278;2022-08-27T14:11:44;94434.22;;;30.70;29.23
6435;BME280;3250;42.694;23.278;2022-08-27T14:14:10;94436.25;;;30.73;28.91
6435;BME280;3250;42.694;23.278;2022-08-27T14:16:36;94429.34;;;30.76;29.30
6435;BME280;3250;42.694;23.278;2022-08-27T14:19:13;94427.75;;;30.75;28.40
6435;BME280;3250;42.694;23.278;2022-08-27T14:21:48;94429.06;;;30.81;29.17
6435;BME280;3250;42.694;23.278;2022-08-27T14:24:15;94438.81;;;30.82;29.98
6435;BME280;3250;42.694;23.278;2022-08-27T14:26:40;94433.09;;;30.71;29.85
6435;BME280;3250;42.694;23.278;2022-08-27T14:29:06;94447.91;;;30.74;29.60
6435;BME280;3250;42.694;23.278;2022-08-27T14:31:31;94443.16;;;30.71;28.83
6435;BME280;3250;42.694;23.278;2022-08-27T14:33:56;94442.31;;;30.67;29.53
6435;BME280;3250;42.694;23.278;2022-08-27T14:36:24;94454.19;;;30.62;29.83
6435;BME280;3250;42.694;23.278;2022-08-27T14:38:52;94452.28;;;30.63;28.84
6435;BME280;3250;42.694;23.278;2022-08-27T14:41:18;94452.53;;;30.58;28.42